sensor_id;sensor_type;location;lat;lon;timestamp;P1;durP1;ratioP1;P2;durP2;ratioP2
5458;SDS011;2752;49.992;8.422;2023-03-24T00:02:09;9.73;;;4.30;;
5458;SDS011;2752;49.992;8.422;2023-03-24T00:04:37;15.67;;;6.50;;
5458;SDS011;2752;49.992;8.422;2023-03-24T00:07:06;5.40;;;3.63;;
5458;SDS011;2752;49.992;8.422;2023-03-24T00:09:33;6.50;;;3.80;;
5458;SDS011;2752;49.992;8.422;2023-03-24T00:12:02;7.43;;;4.27;;
5458;SDS011;2752;49.992;8.422;2023-03-24T00:14:29;6.57;;;3.67;;
5458;SDS011;2752;49.992;8.422;2023-03-24T00:16:55;6.73;;;3.43;;
5458;SDS011;2752;49.992;8.422;2023-03-24T00:19:23;6.70;;;3.17;;
5458;SDS011;2752;49.992;8.422;2023-03-24T00:21:50;11.53;;;3.63;;
5458;SDS011;2752;49.992;8.422;2023-03-24T00:24:20;5.40;;;3.40;;
5458;SDS011;2752;49.992;8.422;2023-03-24T00:26:47;5.00;;;3.23;;
5458;SDS011;2752;49.992;8.422;2023-03-24T00:29:17;7.80;;;3.60;;
5458;SDS011;2752;49.992;8.422;2023-03-24T00:31:44;5.83;;;3.57;;
5458;SDS011;2752;49.992;8.422;2023-03-24T00:34:11;15.03;;;3.60;;
5458;SDS011;2752;49.992;8.422;2023-03-24T00:36:37;6.37;;;3.20;;
5458;SDS011;2752;49.992;8.422;2023-03-24T00:39:04;6.17;;;3.60;;
5458;SDS011;2752;49.992;8.422;2023-03-24T00:41:31;7.30;;;3.30;;
5458;SDS011;2752;49.992;8.422;2023-03-24T00:43:58;6.23;;;3.60;;
5458;SDS011;2752;49.992;8.422;2023-03-24T00:46:29;5.13;;;3.20;;
5458;SDS011;2752;49.992;8.422;2023-03-24T00:48:58;4.30;;;3.13;;
5458;SDS011;2752;49.992;8.422;2023-03-24T00:51:30;3.83;;;2.90;;
5458;SDS011;2752;49.992;8.422;2023-03-24T00:53:58;3.50;;;2.93;;
5458;SDS011;2752;49.992;8.422;2023-03-24T00:56:26;5.70;;;3.57;;
5458;SDS011;2752;49.992;8.422;2023-03-24T00:58:55;7.90;;;3.90;;
5458;SDS011;2752;49.992;8.422;2023-03-24T01:01:23;8.60;;;3.47;;
5458;SDS011;2752;49.992;8.422;2023-03-24T01:03:54;6.43;;;3.60;;
5458;SDS011;2752;49.992;8.422;2023-03-24T01:06:21;5.70;;;3.40;;
5458;SDS011;2752;49.992;8.422;2023-03-24T01:08:49;5.50;;;3.30;;
5458;SDS011;2752;49.992;8.422;2023-03-24T01:11:18;5.50;;;3.37;;
5458;SDS011;2752;49.992;8.422;2023-03-24T01:13:48;9.33;;;3.70;;
5458;SDS011;2752;49.992;8.422;2023-03-24T01:16:15;8.20;;;3.67;;
5458;SDS011;2752;49.992;8.422;2023-03-24T01:18:43;7.10;;;3.87;;
5458;SDS011;2752;49.992;8.422;2023-03-24T01:21:11;8.50;;;3.97;;
5458;SDS011;2752;49.992;8.422;2023-03-24T01:23:38;7.00;;;3.50;;
5458;SDS011;2752;49.992;8.422;2023-03-24T01:26:08;9.70;;;3.50;;
5458;SDS011;2752;49.992;8.422;2023-03-24T01:28:37;11.90;;;4.10;;
5458;SDS011;2752;49.992;8.422;2023-03-24T01:31:08;15.07;;;3.80;;
5458;SDS011;2752;49.992;8.422;2023-03-24T01:33:36;4.43;;;3.23;;
5458;SDS011;2752;49.992;8.422;2023-03-24T01:36:06;7.83;;;4.13;;
5458;SDS011;2752;49.992;8.422;2023-03-24T01:38:38;10.67;;;3.70;;
5458;SDS011;2752;49.992;8.422;2023-03-24T01:41:06;5.30;;;3.43;;
5458;SDS011;2752;49.992;8.422;2023-03-24T01:43:34;10.23;;;3.73;;
5458;SDS011;2752;49.992;8.422;2023-03-24T01:46:07;5.90;;;3.70;;
5458;SDS011;2752;49.992;8.422;2023-03-24T01:48:42;6.93;;;4.13;;
5458;SDS011;2752;49.992;8.422;2023-03-24T01:51:14;7.73;;;3.97;;
5458;SDS011;2752;49.992;8.422;2023-03-24T01:53:46;6.10;;;3.07;;
5458;SDS011;2752;49.992;8.422;2023-03-24T01:56:19;8.37;;;4.20;;
5458;SDS011;2752;49.992;8.422;2023-03-24T01:58:48;7.27;;;4.10;;
5458;SDS011;2752;49.992;8.422;2023-03-24T02:01:19;3.80;;;3.30;;
5458;SDS011;2752;49.992;8.422;2023-03-24T02:03:50;10.33;;;4.80;;
5458;SDS011;2752;49.992;8.422;2023-03-24T02:06:19;9.70;;;4.00;;
5458;SDS011;2752;49.992;8.422;2023-03-24T02:08:52;5.77;;;3.60;;
5458;SDS011;2752;49.992;8.422;2023-03-24T02:11:22;5.83;;;3.27;;
5458;SDS011;2752;49.992;8.422;2023-03-24T02:13:58;6.67;;;3.60;;
5458;SDS011;2752;49.992;8.422;2023-03-24T02:16:29;7.60;;;3.80;;
5458;SDS011;2752;49.992;8.422;2023-03-24T02:19:20;8.20;;;4.10;;
5458;SDS011;2752;49.992;8.422;2023-03-24T02:22:18;5.07;;;3.70;;
5458;SDS011;2752;49.992;8.422;2023-03-24T02:25:18;9.47;;;4.90;;
5458;SDS011;2752;49.992;8.422;2023-03-24T02:28:01;8.73;;;4.33;;
5458;SDS011;2752;49.992;8.422;2023-03-24T02:30:51;10.10;;;5.50;;
5458;SDS011;2752;49.992;8.422;2023-03-24T02:33:51;7.77;;;4.63;;
5458;SDS011;2752;49.992;8.422;2023-03-24T02:36:49;9.73;;;4.70;;
5458;SDS011;2752;49.992;8.422;2023-03-24T02:39:46;7.30;;;4.30;;
5458;SDS011;2752;49.992;8.422;2023-03-24T02:42:22;8.30;;;5.00;;
5458;SDS011;2752;49.992;8.422;2023-03-24T02:44:56;12.70;;;4.80;;
5458;SDS011;2752;49.992;8.422;2023-03-24T02:47:34;7.23;;;4.33;;
5458;SDS011;2752;49.992;8.422;2023-03-24T02:50:07;11.80;;;4.93;;
5458;SDS011;2752;49.992;8.422;2023-03-24T02:52:42;8.40;;;5.27;;
5458;SDS011;2752;49.992;8.422;2023-03-24T02:55:15;7.00;;;4.50;;
5458;SDS011;2752;49.992;8.422;2023-03-24T02:57:47;6.20;;;4.10;;
5458;SDS011;2752;49.992;8.422;2023-03-24T03:00:18;13.77;;;4.70;;
5458;SDS011;2752;49.992;8.422;2023-03-24T03:02:51;11.23;;;4.50;;
5458;SDS011;2752;49.992;8.422;2023-03-24T03:05:24;8.27;;;5.00;;
5458;SDS011;2752;49.992;8.422;2023-03-24T03:07:55;9.07;;;4.77;;
5458;SDS011;2752;49.992;8.422;2023-03-24T03:10:26;7.20;;;4.90;;
5458;SDS011;2752;49.992;8.422;2023-03-24T03:12:57;9.97;;;4.97;;
5458;SDS011;2752;49.992;8.422;2023-03-24T03:15:27;7.33;;;4.73;;
5458;SDS011;2752;49.992;8.422;2023-03-24T03:17:57;8.17;;;4.80;;
5458;SDS011;2752;49.992;8.422;2023-03-24T03:20:30;10.90;;;6.03;;
5458;SDS011;2752;49.992;8.422;2023-03-24T03:23:03;12.07;;;5.03;;
5458;SDS011;2752;49.992;8.422;2023-03-24T03:25:37;9.73;;;5.40;;
5458;SDS011;2752;49.992;8.422;2023-03-24T03:28:06;11.27;;;5.67;;
5458;SDS011;2752;49.992;8.422;2023-03-24T03:30:37;8.20;;;5.10;;
5458;SDS011;2752;49.992;8.422;2023-03-24T03:33:07;10.10;;;5.93;;
5458;SDS011;2752;49.992;8.422;2023-03-24T03:35:43;11.90;;;5.00;;
5458;SDS011;2752;49.992;8.422;2023-03-24T03:38:14;13.97;;;4.90;;
5458;SDS011;2752;49.992;8.422;2023-03-24T03:40:48;10.00;;;5.00;;
5458;SDS011;2752;49.992;8.422;2023-03-24T03:43:16;7.63;;;4.43;;
5458;SDS011;2752;49.992;8.422;2023-03-24T03:45:43;11.70;;;5.40;;
5458;SDS011;2752;49.992;8.422;2023-03-24T03:48:10;11.03;;;5.00;;
5458;SDS011;2752;49.992;8.422;2023-03-24T03:50:37;12.07;;;5.70;;
5458;SDS011;2752;49.992;8.422;2023-03-24T03:53:04;10.00;;;5.00;;
5458;SDS011;2752;49.992;8.422;2023-03-24T03:55:32;7.00;;;4.37;;
5458;SDS011;2752;49.992;8.422;2023-03-24T03:58:00;6.67;;;4.40;;
5458;SDS011;2752;49.992;8.422;2023-03-24T04:00:28;6.80;;;4.40;;
5458;SDS011;2752;49.992;8.422;2023-03-24T04:03:05;8.17;;;4.90;;
5458;SDS011;2752;49.992;8.422;2023-03-24T04:05:46;8.73;;;4.90;;
5458;SDS011;2752;49.992;8.422;2023-03-24T04:08:20;12.63;;;4.80;;
5458;SDS011;2752;49.992;8.422;2023-03-24T04:13:46;9.30;;;5.00;;
5458;SDS011;2752;49.992;8.422;2023-03-24T04:16:25;8.20;;;5.53;;
5458;SDS011;2752;49.992;8.422;2023-03-24T04:19:04;8.70;;;4.57;;
5458;SDS011;2752;49.992;8.422;2023-03-24T04:21:45;9.30;;;4.57;;
5458;SDS011;2752;49.992;8.422;2023-03-24T04:24:24;7.70;;;4.07;;
5458;SDS011;2752;49.992;8.422;2023-03-24T04:27:08;6.40;;;4.60;;
5458;SDS011;2752;49.992;8.422;2023-03-24T04:29:41;7.77;;;4.60;;
5458;SDS011;2752;49.992;8.422;2023-03-24T04:32:18;11.33;;;4.60;;
5458;SDS011;2752;49.992;8.422;2023-03-24T04:34:52;5.87;;;4.10;;
5458;SDS011;2752;49.992;8.422;2023-03-24T04:37:25;7.17;;;4.23;;
5458;SDS011;2752;49.992;8.422;2023-03-24T04:39:56;8.33;;;4.80;;
5458;SDS011;2752;49.992;8.422;2023-03-24T04:42:25;5.90;;;4.50;;
5458;SDS011;2752;49.992;8.422;2023-03-24T04:44:57;6.97;;;4.20;;
5458;SDS011;2752;49.992;8.422;2023-03-24T04:47:25;4.27;;;3.33;;
5458;SDS011;2752;49.992;8.422;2023-03-24T04:49:59;7.57;;;4.80;;
5458;SDS011;2752;49.992;8.422;2023-03-24T04:52:26;8.90;;;3.63;;
5458;SDS011;2752;49.992;8.422;2023-03-24T04:54:53;6.97;;;4.77;;
5458;SDS011;2752;49.992;8.422;2023-03-24T04:57:20;9.37;;;4.90;;
5458;SDS011;2752;49.992;8.422;2023-03-24T04:59:47;11.00;;;5.20;;
5458;SDS011;2752;49.992;8.422;2023-03-24T05:02:15;11.50;;;5.37;;
5458;SDS011;2752;49.992;8.422;2023-03-24T05:04:42;7.43;;;4.63;;
5458;SDS011;2752;49.992;8.422;2023-03-24T05:07:09;8.70;;;4.97;;
5458;SDS011;2752;49.992;8.422;2023-03-24T05:09:35;9.20;;;5.00;;
5458;SDS011;2752;49.992;8.422;2023-03-24T05:12:02;10.43;;;5.20;;
5458;SDS011;2752;49.992;8.422;2023-03-24T05:14:29;7.67;;;4.70;;
5458;SDS011;2752;49.992;8.422;2023-03-24T05:16:55;8.53;;;5.53;;
5458;SDS011;2752;49.992;8.422;2023-03-24T05:19:23;8.17;;;5.10;;
5458;SDS011;2752;49.992;8.422;2023-03-24T05:21:50;8.50;;;5.07;;
5458;SDS011;2752;49.992;8.422;2023-03-24T05:24:17;6.47;;;4.77;;
5458;SDS011;2752;49.992;8.422;2023-03-24T05:26:44;6.33;;;4.60;;
5458;SDS011;2752;49.992;8.422;2023-03-24T05:29:11;8.70;;;5.10;;
5458;SDS011;2752;49.992;8.422;2023-03-24T05:31:37;8.70;;;5.03;;
5458;SDS011;2752;49.992;8.422;2023-03-24T05:34:04;9.37;;;5.30;;
5458;SDS011;2752;49.992;8.422;2023-03-24T05:36:33;6.40;;;4.20;;
5458;SDS011;2752;49.992;8.422;2023-03-24T05:38:59;5.97;;;4.20;;
5458;SDS011;2752;49.992;8.422;2023-03-24T05:41:26;5.10;;;4.17;;
5458;SDS011;2752;49.992;8.422;2023-03-24T05:43:53;6.97;;;4.87;;
5458;SDS011;2752;49.992;8.422;2023-03-24T05:46:19;7.93;;;4.60;;
5458;SDS011;2752;49.992;8.422;2023-03-24T05:48:46;8.53;;;5.20;;
5458;SDS011;2752;49.992;8.422;2023-03-24T05:51:13;7.30;;;3.73;;
5458;SDS011;2752;49.992;8.422;2023-03-24T05:53:41;4.90;;;3.53;;
5458;SDS011;2752;49.992;8.422;2023-03-24T05:56:08;6.33;;;3.60;;
5458;SDS011;2752;49.992;8.422;2023-03-24T05:58:36;3.97;;;3.30;;
5458;SDS011;2752;49.992;8.422;2023-03-24T06:01:05;6.40;;;3.40;;
5458;SDS011;2752;49.992;8.422;2023-03-24T06:03:34;4.17;;;2.80;;
5458;SDS011;2752;49.992;8.422;2023-03-24T06:06:03;4.30;;;2.93;;
5458;SDS011;2752;49.992;8.422;2023-03-24T06:08:32;4.37;;;2.63;;
5458;SDS011;2752;49.992;8.422;2023-03-24T06:11:00;8.40;;;3.07;;
5458;SDS011;2752;49.992;8.422;2023-03-24T06:13:28;3.97;;;2.10;;
5458;SDS011;2752;49.992;8.422;2023-03-24T06:15:55;4.60;;;2.23;;
5458;SDS011;2752;49.992;8.422;2023-03-24T06:18:23;3.93;;;2.70;;
5458;SDS011;2752;49.992;8.422;2023-03-24T06:20:51;3.13;;;2.30;;
5458;SDS011;2752;49.992;8.422;2023-03-24T06:23:20;4.30;;;2.40;;
5458;SDS011;2752;49.992;8.422;2023-03-24T06:25:47;4.10;;;2.47;;
5458;SDS011;2752;49.992;8.422;2023-03-24T06:28:16;6.07;;;2.80;;
5458;SDS011;2752;49.992;8.422;2023-03-24T06:30:43;3.83;;;2.50;;
5458;SDS011;2752;49.992;8.422;2023-03-24T06:33:10;3.60;;;2.50;;
5458;SDS011;2752;49.992;8.422;2023-03-24T06:35:37;4.60;;;2.83;;
5458;SDS011;2752;49.992;8.422;2023-03-24T06:38:04;5.90;;;2.50;;
5458;SDS011;2752;49.992;8.422;2023-03-24T06:40:31;4.53;;;2.90;;
5458;SDS011;2752;49.992;8.422;2023-03-24T06:43:00;10.40;;;2.70;;
5458;SDS011;2752;49.992;8.422;2023-03-24T06:45:28;2.90;;;2.57;;
5458;SDS011;2752;49.992;8.422;2023-03-24T06:47:55;6.80;;;3.23;;
5458;SDS011;2752;49.992;8.422;2023-03-24T06:50:22;4.57;;;2.90;;
5458;SDS011;2752;49.992;8.422;2023-03-24T06:52:50;6.40;;;2.90;;
5458;SDS011;2752;49.992;8.422;2023-03-24T06:55:17;5.57;;;3.93;;
5458;SDS011;2752;49.992;8.422;2023-03-24T06:57:46;5.10;;;3.10;;
5458;SDS011;2752;49.992;8.422;2023-03-24T07:00:13;6.07;;;3.67;;
5458;SDS011;2752;49.992;8.422;2023-03-24T07:02:41;5.23;;;3.50;;
5458;SDS011;2752;49.992;8.422;2023-03-24T07:05:08;6.00;;;3.57;;
5458;SDS011;2752;49.992;8.422;2023-03-24T07:07:35;6.80;;;4.20;;
5458;SDS011;2752;49.992;8.422;2023-03-24T07:10:02;6.17;;;3.80;;
5458;SDS011;2752;49.992;8.422;2023-03-24T07:12:30;5.87;;;4.10;;
5458;SDS011;2752;49.992;8.422;2023-03-24T07:14:57;6.27;;;3.70;;
5458;SDS011;2752;49.992;8.422;2023-03-24T07:17:24;9.30;;;3.90;;
5458;SDS011;2752;49.992;8.422;2023-03-24T07:19:52;4.83;;;3.70;;
5458;SDS011;2752;49.992;8.422;2023-03-24T07:22:18;5.10;;;3.57;;
5458;SDS011;2752;49.992;8.422;2023-03-24T07:24:45;5.43;;;3.10;;
5458;SDS011;2752;49.992;8.422;2023-03-24T07:27:11;4.83;;;3.03;;
5458;SDS011;2752;49.992;8.422;2023-03-24T07:29:38;11.20;;;3.13;;
5458;SDS011;2752;49.992;8.422;2023-03-24T07:32:05;5.27;;;3.60;;
5458;SDS011;2752;49.992;8.422;2023-03-24T07:34:32;8.10;;;3.30;;
5458;SDS011;2752;49.992;8.422;2023-03-24T07:37:01;8.20;;;3.80;;
5458;SDS011;2752;49.992;8.422;2023-03-24T07:39:28;6.43;;;3.70;;
5458;SDS011;2752;49.992;8.422;2023-03-24T07:41:55;7.60;;;3.20;;
5458;SDS011;2752;49.992;8.422;2023-03-24T07:44:21;9.70;;;4.20;;
5458;SDS011;2752;49.992;8.422;2023-03-24T07:46:48;8.67;;;4.00;;
5458;SDS011;2752;49.992;8.422;2023-03-24T07:49:15;7.80;;;4.37;;
5458;SDS011;2752;49.992;8.422;2023-03-24T07:51:41;8.80;;;3.70;;
5458;SDS011;2752;49.992;8.422;2023-03-24T07:54:09;5.77;;;3.77;;
5458;SDS011;2752;49.992;8.422;2023-03-24T07:56:36;11.93;;;4.43;;
5458;SDS011;2752;49.992;8.422;2023-03-24T07:59:02;7.10;;;4.37;;
5458;SDS011;2752;49.992;8.422;2023-03-24T08:01:29;6.10;;;4.07;;
5458;SDS011;2752;49.992;8.422;2023-03-24T08:03:56;8.80;;;4.40;;
5458;SDS011;2752;49.992;8.422;2023-03-24T08:06:23;12.40;;;4.17;;
5458;SDS011;2752;49.992;8.422;2023-03-24T08:08:50;6.87;;;4.20;;
5458;SDS011;2752;49.992;8.422;2023-03-24T08:11:18;10.10;;;4.73;;
5458;SDS011;2752;49.992;8.422;2023-03-24T08:13:44;9.40;;;4.57;;
5458;SDS011;2752;49.992;8.422;2023-03-24T08:16:11;6.17;;;4.57;;
5458;SDS011;2752;49.992;8.422;2023-03-24T08:18:37;8.17;;;4.97;;
5458;SDS011;2752;49.992;8.422;2023-03-24T08:21:04;9.10;;;5.07;;
5458;SDS011;2752;49.992;8.422;2023-03-24T08:23:31;9.90;;;5.53;;
5458;SDS011;2752;49.992;8.422;2023-03-24T08:26:00;8.63;;;5.20;;
5458;SDS011;2752;49.992;8.422;2023-03-24T08:28:28;6.83;;;4.80;;
5458;SDS011;2752;49.992;8.422;2023-03-24T08:30:55;6.50;;;4.57;;
5458;SDS011;2752;49.992;8.422;2023-03-24T08:33:21;9.43;;;5.83;;
5458;SDS011;2752;49.992;8.422;2023-03-24T08:35:48;9.30;;;5.77;;
5458;SDS011;2752;49.992;8.422;2023-03-24T08:38:15;9.90;;;5.17;;
5458;SDS011;2752;49.992;8.422;2023-03-24T08:40:41;10.47;;;3.70;;
5458;SDS011;2752;49.992;8.422;2023-03-24T08:43:11;4.10;;;2.70;;
5458;SDS011;2752;49.992;8.422;2023-03-24T08:45:42;2.47;;;1.20;;
5458;SDS011;2752;49.992;8.422;2023-03-24T08:48:09;3.03;;;1.20;;
5458;SDS011;2752;49.992;8.422;2023-03-24T08:50:37;1.53;;;0.73;;
5458;SDS011;2752;49.992;8.422;2023-03-24T08:53:06;2.03;;;0.90;;
5458;SDS011;2752;49.992;8.422;2023-03-24T08:55:33;2.93;;;1.70;;
5458;SDS011;2752;49.992;8.422;2023-03-24T08:58:01;3.00;;;1.63;;
5458;SDS011;2752;49.992;8.422;2023-03-24T09:00:28;2.37;;;1.53;;
5458;SDS011;2752;49.992;8.422;2023-03-24T09:02:56;1.13;;;0.90;;
5458;SDS011;2752;49.992;8.422;2023-03-24T09:05:24;1.43;;;1.17;;
5458;SDS011;2752;49.992;8.422;2023-03-24T09:07:51;3.10;;;1.50;;
5458;SDS011;2752;49.992;8.422;2023-03-24T09:10:18;0.90;;;0.80;;
5458;SDS011;2752;49.992;8.422;2023-03-24T09:12:46;2.20;;;1.47;;
5458;SDS011;2752;49.992;8.422;2023-03-24T09:15:13;5.30;;;1.53;;
5458;SDS011;2752;49.992;8.422;2023-03-24T09:17:40;1.00;;;0.90;;
5458;SDS011;2752;49.992;8.422;2023-03-24T09:20:09;2.93;;;1.17;;
5458;SDS011;2752;49.992;8.422;2023-03-24T09:22:38;1.13;;;0.90;;
5458;SDS011;2752;49.992;8.422;2023-03-24T09:25:05;1.30;;;1.00;;
5458;SDS011;2752;49.992;8.422;2023-03-24T09:27:33;1.10;;;1.00;;
5458;SDS011;2752;49.992;8.422;2023-03-24T09:30:00;6.27;;;1.23;;
5458;SDS011;2752;49.992;8.422;2023-03-24T09:32:27;1.83;;;0.93;;
5458;SDS011;2752;49.992;8.422;2023-03-24T09:34:53;2.53;;;1.20;;
5458;SDS011;2752;49.992;8.422;2023-03-24T09:37:21;1.50;;;1.20;;
5458;SDS011;2752;49.992;8.422;2023-03-24T09:39:48;0.80;;;0.80;;
5458;SDS011;2752;49.992;8.422;2023-03-24T09:42:17;1.40;;;0.90;;
5458;SDS011;2752;49.992;8.422;2023-03-24T09:44:47;1.10;;;0.90;;
5458;SDS011;2752;49.992;8.422;2023-03-24T09:47:20;1.13;;;0.80;;
5458;SDS011;2752;49.992;8.422;2023-03-24T09:49:53;1.73;;;0.90;;
5458;SDS011;2752;49.992;8.422;2023-03-24T09:52:27;1.07;;;0.90;;
5458;SDS011;2752;49.992;8.422;2023-03-24T09:54:59;1.90;;;0.87;;
5458;SDS011;2752;49.992;8.422;2023-03-24T09:57:28;1.43;;;1.10;;
5458;SDS011;2752;49.992;8.422;2023-03-24T10:00:00;2.60;;;1.07;;
5458;SDS011;2752;49.992;8.422;2023-03-24T10:02:33;5.13;;;1.70;;
5458;SDS011;2752;49.992;8.422;2023-03-24T10:05:00;3.27;;;1.87;;
5458;SDS011;2752;49.992;8.422;2023-03-24T10:07:28;3.80;;;2.20;;
5458;SDS011;2752;49.992;8.422;2023-03-24T10:10:02;7.13;;;1.17;;
5458;SDS011;2752;49.992;8.422;2023-03-24T10:12:41;1.93;;;1.53;;
5458;SDS011;2752;49.992;8.422;2023-03-24T10:15:13;4.03;;;1.57;;
5458;SDS011;2752;49.992;8.422;2023-03-24T10:17:47;3.63;;;1.00;;
5458;SDS011;2752;49.992;8.422;2023-03-24T10:20:27;1.93;;;1.00;;
5458;SDS011;2752;49.992;8.422;2023-03-24T10:23:02;2.73;;;1.23;;
5458;SDS011;2752;49.992;8.422;2023-03-24T10:25:41;4.23;;;1.20;;
5458;SDS011;2752;49.992;8.422;2023-03-24T10:28:15;2.67;;;1.20;;
5458;SDS011;2752;49.992;8.422;2023-03-24T10:30:44;2.20;;;0.80;;
5458;SDS011;2752;49.992;8.422;2023-03-24T10:33:13;2.90;;;1.43;;
5458;SDS011;2752;49.992;8.422;2023-03-24T10:35:40;2.17;;;1.10;;
5458;SDS011;2752;49.992;8.422;2023-03-24T10:38:14;4.23;;;1.33;;
5458;SDS011;2752;49.992;8.422;2023-03-24T10:40:43;3.77;;;1.57;;
5458;SDS011;2752;49.992;8.422;2023-03-24T10:43:11;2.97;;;1.27;;
5458;SDS011;2752;49.992;8.422;2023-03-24T10:45:38;1.13;;;0.97;;
5458;SDS011;2752;49.992;8.422;2023-03-24T10:48:09;5.10;;;1.50;;
5458;SDS011;2752;49.992;8.422;2023-03-24T10:50:40;1.50;;;1.40;;
5458;SDS011;2752;49.992;8.422;2023-03-24T10:53:15;1.80;;;1.20;;
5458;SDS011;2752;49.992;8.422;2023-03-24T10:55:43;2.23;;;1.30;;
5458;SDS011;2752;49.992;8.422;2023-03-24T10:58:14;7.60;;;1.27;;
5458;SDS011;2752;49.992;8.422;2023-03-24T11:00:46;3.40;;;1.33;;
5458;SDS011;2752;49.992;8.422;2023-03-24T11:03:14;1.10;;;0.90;;
5458;SDS011;2752;49.992;8.422;2023-03-24T11:05:42;3.33;;;1.10;;
5458;SDS011;2752;49.992;8.422;2023-03-24T11:08:17;1.30;;;1.20;;
5458;SDS011;2752;49.992;8.422;2023-03-24T11:10:52;3.33;;;1.97;;
5458;SDS011;2752;49.992;8.422;2023-03-24T11:13:19;2.27;;;1.30;;
5458;SDS011;2752;49.992;8.422;2023-03-24T11:15:54;1.40;;;1.00;;
5458;SDS011;2752;49.992;8.422;2023-03-24T11:18:28;1.23;;;0.90;;
5458;SDS011;2752;49.992;8.422;2023-03-24T11:20:56;1.83;;;1.10;;
5458;SDS011;2752;49.992;8.422;2023-03-24T11:23:26;5.87;;;0.90;;
5458;SDS011;2752;49.992;8.422;2023-03-24T11:26:04;5.60;;;1.07;;
5458;SDS011;2752;49.992;8.422;2023-03-24T11:28:35;1.93;;;0.93;;
5458;SDS011;2752;49.992;8.422;2023-03-24T11:31:05;4.33;;;1.10;;
5458;SDS011;2752;49.992;8.422;2023-03-24T11:33:34;2.90;;;1.17;;
5458;SDS011;2752;49.992;8.422;2023-03-24T11:36:13;3.80;;;1.50;;
5458;SDS011;2752;49.992;8.422;2023-03-24T11:39:10;3.90;;;1.67;;
5458;SDS011;2752;49.992;8.422;2023-03-24T11:41:41;3.80;;;1.97;;
5458;SDS011;2752;49.992;8.422;2023-03-24T11:44:17;2.57;;;1.50;;
5458;SDS011;2752;49.992;8.422;2023-03-24T11:46:45;4.07;;;1.80;;
5458;SDS011;2752;49.992;8.422;2023-03-24T11:49:17;8.63;;;1.40;;
5458;SDS011;2752;49.992;8.422;2023-03-24T11:51:46;7.23;;;1.10;;
5458;SDS011;2752;49.992;8.422;2023-03-24T11:54:18;2.90;;;1.27;;
5458;SDS011;2752;49.992;8.422;2023-03-24T11:56:47;7.50;;;1.50;;
5458;SDS011;2752;49.992;8.422;2023-03-24T11:59:23;4.00;;;1.33;;
5458;SDS011;2752;49.992;8.422;2023-03-24T12:01:59;6.97;;;1.73;;
5458;SDS011;2752;49.992;8.422;2023-03-24T12:04:38;6.03;;;1.33;;
5458;SDS011;2752;49.992;8.422;2023-03-24T12:07:32;6.60;;;1.43;;
5458;SDS011;2752;49.992;8.422;2023-03-24T12:10:19;2.87;;;0.90;;
5458;SDS011;2752;49.992;8.422;2023-03-24T12:12:56;3.33;;;1.23;;
5458;SDS011;2752;49.992;8.422;2023-03-24T12:15:32;2.20;;;1.47;;
5458;SDS011;2752;49.992;8.422;2023-03-24T12:18:08;3.43;;;1.00;;
5458;SDS011;2752;49.992;8.422;2023-03-24T12:21:00;8.83;;;1.50;;
5458;SDS011;2752;49.992;8.422;2023-03-24T12:23:38;7.13;;;1.20;;
5458;SDS011;2752;49.992;8.422;2023-03-24T12:26:18;7.03;;;2.17;;
5458;SDS011;2752;49.992;8.422;2023-03-24T12:31:53;3.23;;;1.47;;
5458;SDS011;2752;49.992;8.422;2023-03-24T12:37:29;6.10;;;1.30;;
5458;SDS011;2752;49.992;8.422;2023-03-24T12:40:06;4.33;;;2.07;;
5458;SDS011;2752;49.992;8.422;2023-03-24T12:42:48;2.87;;;1.17;;
5458;SDS011;2752;49.992;8.422;2023-03-24T12:45:26;7.50;;;1.80;;
5458;SDS011;2752;49.992;8.422;2023-03-24T12:51:05;3.83;;;1.20;;
5458;SDS011;2752;49.992;8.422;2023-03-24T12:53:44;5.00;;;0.80;;
5458;SDS011;2752;49.992;8.422;2023-03-24T12:56:22;3.03;;;0.87;;
5458;SDS011;2752;49.992;8.422;2023-03-24T12:58:58;7.93;;;1.53;;
5458;SDS011;2752;49.992;8.422;2023-03-24T13:01:30;9.87;;;1.80;;
5458;SDS011;2752;49.992;8.422;2023-03-24T13:04:03;1.93;;;0.80;;
5458;SDS011;2752;49.992;8.422;2023-03-24T13:06:35;3.20;;;1.37;;
5458;SDS011;2752;49.992;8.422;2023-03-24T13:09:07;5.40;;;1.13;;
5458;SDS011;2752;49.992;8.422;2023-03-24T13:11:44;2.70;;;0.97;;
5458;SDS011;2752;49.992;8.422;2023-03-24T13:14:20;2.90;;;0.90;;
5458;SDS011;2752;49.992;8.422;2023-03-24T13:16:51;4.83;;;1.10;;
5458;SDS011;2752;49.992;8.422;2023-03-24T13:19:22;3.10;;;1.30;;
5458;SDS011;2752;49.992;8.422;2023-03-24T13:21:50;3.73;;;1.27;;
5458;SDS011;2752;49.992;8.422;2023-03-24T13:24:19;5.80;;;1.30;;
5458;SDS011;2752;49.992;8.422;2023-03-24T13:26:49;3.67;;;1.20;;
5458;SDS011;2752;49.992;8.422;2023-03-24T13:29:26;4.47;;;1.20;;
5458;SDS011;2752;49.992;8.422;2023-03-24T13:32:26;4.30;;;1.20;;
5458;SDS011;2752;49.992;8.422;2023-03-24T13:34:57;0.90;;;0.80;;
5458;SDS011;2752;49.992;8.422;2023-03-24T13:37:31;4.50;;;1.13;;
5458;SDS011;2752;49.992;8.422;2023-03-24T13:40:04;1.90;;;0.80;;
5458;SDS011;2752;49.992;8.422;2023-03-24T13:42:35;4.97;;;1.90;;
5458;SDS011;2752;49.992;8.422;2023-03-24T13:45:20;5.53;;;1.20;;
5458;SDS011;2752;49.992;8.422;2023-03-24T13:47:54;5.47;;;1.17;;
5458;SDS011;2752;49.992;8.422;2023-03-24T13:50:30;5.50;;;1.30;;
5458;SDS011;2752;49.992;8.422;2023-03-24T13:52:59;6.10;;;1.13;;
5458;SDS011;2752;49.992;8.422;2023-03-24T13:55:33;2.53;;;1.00;;
5458;SDS011;2752;49.992;8.422;2023-03-24T13:58:03;2.57;;;1.23;;
5458;SDS011;2752;49.992;8.422;2023-03-24T14:03:36;7.27;;;1.40;;
5458;SDS011;2752;49.992;8.422;2023-03-24T14:06:06;3.97;;;1.20;;
5458;SDS011;2752;49.992;8.422;2023-03-24T14:08:38;9.40;;;1.20;;
5458;SDS011;2752;49.992;8.422;2023-03-24T14:11:09;6.60;;;1.77;;
5458;SDS011;2752;49.992;8.422;2023-03-24T14:14:07;3.60;;;1.00;;
5458;SDS011;2752;49.992;8.422;2023-03-24T14:16:43;4.70;;;1.10;;
5458;SDS011;2752;49.992;8.422;2023-03-24T14:19:19;6.27;;;1.47;;
5458;SDS011;2752;49.992;8.422;2023-03-24T14:21:52;3.03;;;0.93;;
5458;SDS011;2752;49.992;8.422;2023-03-24T14:24:24;3.53;;;1.33;;
5458;SDS011;2752;49.992;8.422;2023-03-24T14:26:53;1.60;;;0.90;;
5458;SDS011;2752;49.992;8.422;2023-03-24T14:29:32;1.53;;;0.90;;
5458;SDS011;2752;49.992;8.422;2023-03-24T14:32:03;7.37;;;1.10;;
5458;SDS011;2752;49.992;8.422;2023-03-24T14:34:32;3.20;;;1.23;;
5458;SDS011;2752;49.992;8.422;2023-03-24T14:37:02;8.17;;;1.07;;
5458;SDS011;2752;49.992;8.422;2023-03-24T14:39:34;4.80;;;1.33;;
5458;SDS011;2752;49.992;8.422;2023-03-24T14:45:13;4.90;;;1.00;;
5458;SDS011;2752;49.992;8.422;2023-03-24T14:48:04;4.10;;;1.23;;
5458;SDS011;2752;49.992;8.422;2023-03-24T14:50:48;4.67;;;1.60;;
5458;SDS011;2752;49.992;8.422;2023-03-24T14:53:18;3.20;;;0.90;;
5458;SDS011;2752;49.992;8.422;2023-03-24T14:55:47;4.83;;;1.30;;
5458;SDS011;2752;49.992;8.422;2023-03-24T14:58:17;2.87;;;1.40;;
5458;SDS011;2752;49.992;8.422;2023-03-24T15:00:48;5.90;;;1.60;;
5458;SDS011;2752;49.992;8.422;2023-03-24T15:03:20;2.67;;;1.50;;
5458;SDS011;2752;49.992;8.422;2023-03-24T15:05:52;3.60;;;0.97;;
5458;SDS011;2752;49.992;8.422;2023-03-24T15:08:19;1.63;;;0.90;;
5458;SDS011;2752;49.992;8.422;2023-03-24T15:10:48;2.50;;;0.80;;
5458;SDS011;2752;49.992;8.422;2023-03-24T15:13:22;6.50;;;1.40;;
5458;SDS011;2752;49.992;8.422;2023-03-24T15:15:55;4.20;;;0.97;;
5458;SDS011;2752;49.992;8.422;2023-03-24T15:18:22;5.50;;;1.50;;
5458;SDS011;2752;49.992;8.422;2023-03-24T15:20:49;6.87;;;1.43;;
5458;SDS011;2752;49.992;8.422;2023-03-24T15:23:19;6.83;;;1.37;;
5458;SDS011;2752;49.992;8.422;2023-03-24T15:25:48;2.50;;;1.10;;
5458;SDS011;2752;49.992;8.422;2023-03-24T15:28:16;4.00;;;1.33;;
5458;SDS011;2752;49.992;8.422;2023-03-24T15:30:45;2.50;;;1.10;;
5458;SDS011;2752;49.992;8.422;2023-03-24T15:33:12;7.67;;;1.23;;
5458;SDS011;2752;49.992;8.422;2023-03-24T15:35:39;4.73;;;1.20;;
5458;SDS011;2752;49.992;8.422;2023-03-24T15:38:06;5.57;;;1.77;;
5458;SDS011;2752;49.992;8.422;2023-03-24T15:40:51;9.27;;;1.17;;
5458;SDS011;2752;49.992;8.422;2023-03-24T15:43:21;4.60;;;1.40;;
5458;SDS011;2752;49.992;8.422;2023-03-24T15:45:49;7.30;;;1.17;;
5458;SDS011;2752;49.992;8.422;2023-03-24T15:48:17;2.80;;;0.90;;
5458;SDS011;2752;49.992;8.422;2023-03-24T15:50:56;5.03;;;0.90;;
5458;SDS011;2752;49.992;8.422;2023-03-24T15:53:25;6.00;;;1.37;;
5458;SDS011;2752;49.992;8.422;2023-03-24T15:56:01;5.93;;;1.50;;
5458;SDS011;2752;49.992;8.422;2023-03-24T15:58:31;4.73;;;1.23;;